Weather observations for the past three days for
Camp Springs / Andrews Air Force Base
Metric (Imperial)
Date Time (edt) Wind (kph) Vis. (km) Weather Sky Cond. Temperature (ºC) Relative Humidity Wind Chill (°C) Heat Index (°C) Pressure Precipitation (cm)
Air Dwpt 6 hour altimeter (cm) sea level (mb) 1 hr 3 hr 6 hr
Max. Min.
04 17:55 SW 30 G 44 16.09 A Few Clouds FEW100 26.1 3.9 24% 26 75.74 1010.4
04 16:55 SW 24 G 33 16.09 A Few Clouds FEW100 25.4 2.1 22% 25 75.74 1010.4
04 15:55 SW 28 G 37 16.09 Fair CLR 25.2 2 22% 25 75.79 1011.0
04 14:55 SW 24 G 31 16.09 Fair CLR 24.6 1.5 22% 25 75.87 1012.1
04 13:55 SW 19 G 33 16.09 Fair CLR 23.3 1.6 23.7 12.6 24% 75.95 1013.1
04 12:55 W 17 16.09 Fair CLR 22.8 0.6 23% 76 1013.8
04 11:55 W 15 G 31 16.09 Fair CLR 21.8 0.9 25% 76.05 1014.5
04 10:55 SW 11 16.09 Fair CLR 20.6 0.4 26% 76.05 1014.5
04 09:55 SW 9 16.09 Fair CLR 17.4 1 33% 76.1 1015.2
04 08:55 SW 17 16.09 Fair CLR 14.7 1.6 41% 76.12 1015.6
04 07:55 SW 19 16.09 Mostly Cloudy BKN095 12.9 1.9 13 8.6 47% 76.15 1015.9
04 06:55 S 9 16.09 Fair CLR 8.8 2.1 63% 8 76.15 1015.9
04 05:55 S 15 16.09 Overcast OVC095 10.7 1.8 54% 76.15 1015.9
04 04:55 SW 9 16.09 Overcast OVC100 10.7 2.5 57% 76.17 1016.2
04 03:55 S 13 16.09 Overcast OVC100 10.7 2.5 57% 76.17 1016.2
04 02:55 S 9 16.09 Overcast OVC120 10.3 2.4 58% 76.2 1016.6
04 01:55 S 7 16.09 A Few Clouds FEW130 9.7 1.6 15 6.6 57% 9 76.2 1016.6
03 23:55 S 9 16.09 Fair CLR 9.3 -0.9 49% 8 76.2 1016.6
03 22:55 S 13 16.09 Fair CLR 9 -1.4 48% 7 76.17 1016.3
03 21:55 S 9 16.09 Fair CLR 7.9 -0.8 55% 7 76.15 1016.0
03 20:55 S 9 16.09 Fair CLR 10.5 -1.6 43% 76.12 1015.6
03 19:55 W 11 16.09 Fair CLR 15.2 -5.8 17.4 14.5 23% 76.1 1015.2
03 18:55 NW 13 16.09 Fair CLR 16.8 -7 19% 76.07 1014.9
03 17:55 W 19 16.09 Fair CLR 17.3 -6.6 19% 76.07 1014.9
03 16:55 W 24 G 33 16.09 Fair CLR 16.9 -6.2 20% 76.07 1014.9
03 15:55 NW 26 G 33 16.09 Fair CLR 16.6 -5.2 22% 76.12 1015.6
03 14:55 W 17 16.09 Fair CLR 16 -5.1 23% 76.17 1016.3
03 13:55 N 20 G 39 16.09 Fair CLR 15.5 -5.6 15.5 8.1 23% 76.23 1016.9
03 12:55 NW 19 G 33 16.09 Fair CLR 14.6 -6.3 23% 76.25 1017.3
03 11:55 NW 24 G 33 16.09 Fair CLR 13.1 -5.5 27% 76.28 1017.6
03 10:55 NW 30 G 39 16.09 A Few Clouds FEW065 11.6 -6.8 27% 76.3 1018.0
03 09:55 NW 24 G 33 16.09 Fair CLR 10.8 -5.2 32% 76.3 1018.0
03 08:55 NW 26 G 39 16.09 Fair CLR 9.6 -4 38% 7 76.3 1018.0
03 07:55 NW 28 G 41 16.09 Fair CLR 8.3 -2.4 10.3 6.3 47% 5 76.28 1017.6
03 06:55 NW 20 16.09 Fair CLR 7.2 -2.3 51% 4 76.2 1016.6
03 05:55 NW 15 16.09 Fair CLR 6.5 -1.4 57% 4 76.12 1015.6
03 04:55 NW 11 16.09 Fair CLR 6.9 -1 58% 5 76.1 1015.3
03 03:55 NW 15 16.09 Fair CLR 7.4 -1.3 54% 5 76.07 1014.9
03 02:55 NW 17 16.09 Fair CLR 8.1 -1.2 52% 6 76.02 1014.2
03 01:55 NW 15 16.09 A Few Clouds FEW100 9 -1.4 13.3 9 48% 7 76.02 1014.2
03 00:55 NW 17 16.09 Mostly Cloudy BKN100 9.7 -1.1 47% 8 76.02 1014.2
02 23:55 NW 17 16.09 Partly Cloudy SCT100 10.5 -1.2 44% 76.02 1014.2
02 22:55 NW 15 16.09 Mostly Cloudy BKN100 11.3 -2.2 39% 76.02 1014.2
02 21:55 NW 9 16.09 Mostly Cloudy BKN100 11.7 -1.5 40% 76 1013.9
02 20:55 N 11 16.09 A Few Clouds FEW180 12 -1.5 39% 75.97 1013.6
02 19:55 N 15 16.09 Fair CLR 13.2 -1.9 16.9 13.2 35% 75.9 1012.5
02 18:55 NW 15 16.09 Partly Cloudy SCT075 14.2 -2.7 31% 75.9 1012.5
02 17:55 N 22 16.09 Overcast OVC075 16.4 -3.2 26% 75.87 1012.2
02 16:55 N 15 16.09 Mostly Cloudy BKN070 15 -1.6 32% 75.84 1011.8
02 15:55 N 7 16.09 A Few Clouds FEW070 15 -2.4 30% 75.87 1012.2
02 14:55 NW 22 G 26 16.09 A Few Clouds FEW065 FEW200 15.6 -1.9 30% 75.95 1013.2
02 13:55 NW 7 16.09 Partly Cloudy FEW055 SCT180 14.8 -1.7 15.4 9.7 32% 76.02 1014.2
02 12:55 NW 17 16.09 Mostly Cloudy FEW130 SCT160 BKN200 13.7 -0.4 38% 76.05 1014.5
02 11:55 N 11 16.09 Partly Cloudy FEW170 SCT200 13.3 0.3 41% 76.07 1014.9
02 10:55 N 9 16.09 Partly Cloudy SCT190 12.7 0.8 44% 76.1 1015.2
02 09:55 N 11 16.09 A Few Clouds FEW170 FEW200 10.9 2 55% 76.07 1014.9
02 08:55 N 17 16.09 A Few Clouds FEW200 10.3 2.6 59% 76.07 1014.9
02 07:55 N 17 16.09 Fair CLR 10.1 2 12.5 9.9 57% 76.07 1014.9
02 06:55 N 11 16.09 Fair CLR 10 2.4 60% 9 76.05 1014.5
02 05:55 NW 19 16.09 Fair CLR 10.3 2.9 60% 76 1013.8
02 04:55 NW 22 16.09 Fair CLR 11.3 4.1 62% 75.95 1013.1
02 03:55 N 17 16.09 A Few Clouds FEW065 11.2 5.5 68% 75.92 1012.8
02 02:55 NW 13 16.09 Mostly Cloudy BKN060 12.1 5.9 66% 75.95 1013.1
02 01:55 NW 15 16.09 Mostly Cloudy FEW065 BKN120 12.2 9 15.6 11.6 81% 75.92 1012.8 0.03 0.1
02 00:55 W 9 16.09 Drizzle BKN050 BKN075 11.8 9.4 85% 75.97 1013.5 0.08
01 23:55 S 15 16.09 Light Drizzle FEW080 FEW100 12 7.3 73% 75.92 1012.8
01 22:55 S 11 16.09 Mostly Cloudy SCT080 BKN100 12.2 5.6 64% 75.87 1012.2
01 21:55 SE 11 16.09 Fair CLR 12.3 5.2 62% 75.9 1012.5
01 20:55 SE 13 16.09 Partly Cloudy SCT120 13.9 3.9 51% 75.82 1011.5
01 19:55 SE 17 16.09 A Few Clouds FEW110 15.4 1.9 19.7 15.4 40% 75.79 1011.1
01 18:55 S 17 16.09 Fair CLR 18.2 0.8 31% 75.77 1010.8
Date Time (edt) Wind (kph) Vis. (km) Weather Sky Cond. Air Dwpt Max. Min. Relative Humidity Wind Chill (°C) Heat Index (°C) altimeter (cm) sea level (mb) 1 hr 3 hr 6 hr
6 hour
Temperature (ºC) Pressure Precipitation (cm)